Propellprodusenter
Antall som skal vises: 
Nr. Nettlenke Treff
1   Link   Hartzell
1651
2   Link   Sensenich
1642
 
METAR
2018/10/18 10:20 ENCN 181020Z 22004KT CAVOK 11/05 Q1023
TAF
2018/10/18 09:38 TAF ENCN 180800Z 1809/1818 28008KT CAVOK
LN-KFK
Operativ VFR-natt
VFR dag
07:29 - 18:56
Brannvakt
Inaktiv
Banner
Banner
Banner
Banner
Banner